sensor_id;sensor_type;location;lat;lon;timestamp;temperature;humidity
9913;DHT22;41380;52.548;13.344;2022-09-17T00:01:53;11.70;99.90
9913;DHT22;41380;52.548;13.344;2022-09-17T00:04:20;11.70;99.90
9913;DHT22;41380;52.548;13.344;2022-09-17T00:06:46;11.70;99.90
9913;DHT22;41380;52.548;13.344;2022-09-17T00:09:14;11.70;99.90
9913;DHT22;41380;52.548;13.344;2022-09-17T00:11:43;11.80;99.90
9913;DHT22;41380;52.548;13.344;2022-09-17T00:14:14;11.80;99.90
9913;DHT22;41380;52.548;13.344;2022-09-17T00:16:48;11.80;99.90
9913;DHT22;41380;52.548;13.344;2022-09-17T00:19:16;11.70;99.90
9913;DHT22;41380;52.548;13.344;2022-09-17T00:21:44;11.70;99.90
9913;DHT22;41380;52.548;13.344;2022-09-17T00:24:13;11.80;99.90
9913;DHT22;41380;52.548;13.344;2022-09-17T00:26:40;11.80;99.90
9913;DHT22;41380;52.548;13.344;2022-09-17T00:29:07;11.80;99.90
9913;DHT22;41380;52.548;13.344;2022-09-17T00:31:36;11.80;99.90
9913;DHT22;41380;52.548;13.344;2022-09-17T00:34:05;11.90;99.90
9913;DHT22;41380;52.548;13.344;2022-09-17T00:36:34;11.90;99.90
9913;DHT22;41380;52.548;13.344;2022-09-17T00:39:01;11.80;99.90
9913;DHT22;41380;52.548;13.344;2022-09-17T00:41:34;11.90;99.90
9913;DHT22;41380;52.548;13.344;2022-09-17T00:47:34;11.90;99.90
9913;DHT22;41380;52.548;13.344;2022-09-17T00:50:06;11.90;99.90
9913;DHT22;41380;52.548;13.344;2022-09-17T00:52:38;12.00;99.90
9913;DHT22;41380;52.548;13.344;2022-09-17T00:55:10;12.00;99.90
9913;DHT22;41380;52.548;13.344;2022-09-17T00:57:40;12.00;99.90
9913;DHT22;41380;52.548;13.344;2022-09-17T01:00:11;12.10;99.90
9913;DHT22;41380;52.548;13.344;2022-09-17T01:02:41;12.10;99.90
9913;DHT22;41380;52.548;13.344;2022-09-17T01:05:09;12.10;99.90
9913;DHT22;41380;52.548;13.344;2022-09-17T01:07:55;12.10;99.90
9913;DHT22;41380;52.548;13.344;2022-09-17T01:13:32;12.10;99.90
9913;DHT22;41380;52.548;13.344;2022-09-17T01:16:13;12.10;99.90
9913;DHT22;41380;52.548;13.344;2022-09-17T01:18:55;12.10;99.90
9913;DHT22;41380;52.548;13.344;2022-09-17T01:21:48;12.10;99.90
9913;DHT22;41380;52.548;13.344;2022-09-17T01:30:38;12.20;99.90
9913;DHT22;41380;52.548;13.344;2022-09-17T01:33:14;12.00;99.90
9913;DHT22;41380;52.548;13.344;2022-09-17T01:35:47;12.10;99.90
9913;DHT22;41380;52.548;13.344;2022-09-17T01:38:23;12.20;99.90
9913;DHT22;41380;52.548;13.344;2022-09-17T01:40:56;12.10;99.90
9913;DHT22;41380;52.548;13.344;2022-09-17T01:43:31;12.10;99.90
9913;DHT22;41380;52.548;13.344;2022-09-17T01:46:06;12.20;99.90
9913;DHT22;41380;52.548;13.344;2022-09-17T01:48:40;12.20;99.90
9913;DHT22;41380;52.548;13.344;2022-09-17T01:51:11;12.20;99.90
9913;DHT22;41380;52.548;13.344;2022-09-17T01:53:44;12.20;99.90
9913;DHT22;41380;52.548;13.344;2022-09-17T01:56:18;12.20;99.90
9913;DHT22;41380;52.548;13.344;2022-09-17T01:58:52;12.20;99.90
9913;DHT22;41380;52.548;13.344;2022-09-17T02:01:27;12.20;99.90
9913;DHT22;41380;52.548;13.344;2022-09-17T02:04:01;12.20;99.90
9913;DHT22;41380;52.548;13.344;2022-09-17T02:06:32;12.20;99.90
9913;DHT22;41380;52.548;13.344;2022-09-17T02:09:06;12.20;99.90
9913;DHT22;41380;52.548;13.344;2022-09-17T02:11:38;12.10;99.90
9913;DHT22;41380;52.548;13.344;2022-09-17T02:14:09;12.10;99.90
9913;DHT22;41380;52.548;13.344;2022-09-17T02:16:42;12.10;99.90
9913;DHT22;41380;52.548;13.344;2022-09-17T02:19:16;12.10;99.90
9913;DHT22;41380;52.548;13.344;2022-09-17T02:21:49;12.10;99.90
9913;DHT22;41380;52.548;13.344;2022-09-17T02:24:22;12.10;99.90
9913;DHT22;41380;52.548;13.344;2022-09-17T02:26:56;12.10;99.90
9913;DHT22;41380;52.548;13.344;2022-09-17T02:29:28;12.10;99.90
9913;DHT22;41380;52.548;13.344;2022-09-17T02:32:00;12.10;99.90
9913;DHT22;41380;52.548;13.344;2022-09-17T02:34:28;12.10;99.90
9913;DHT22;41380;52.548;13.344;2022-09-17T02:36:56;12.10;99.90
9913;DHT22;41380;52.548;13.344;2022-09-17T02:39:24;12.10;99.90
9913;DHT22;41380;52.548;13.344;2022-09-17T02:41:59;12.20;99.90
9913;DHT22;41380;52.548;13.344;2022-09-17T02:44:34;12.10;99.90
9913;DHT22;41380;52.548;13.344;2022-09-17T02:47:19;12.20;99.90
9913;DHT22;41380;52.548;13.344;2022-09-17T02:49:59;12.20;99.90
9913;DHT22;41380;52.548;13.344;2022-09-17T02:52:35;12.20;99.90
9913;DHT22;41380;52.548;13.344;2022-09-17T02:55:12;12.20;99.90
9913;DHT22;41380;52.548;13.344;2022-09-17T02:57:47;12.30;99.90
9913;DHT22;41380;52.548;13.344;2022-09-17T03:00:17;12.20;99.90
9913;DHT22;41380;52.548;13.344;2022-09-17T03:02:49;12.20;99.90
9913;DHT22;41380;52.548;13.344;2022-09-17T03:05:18;12.10;99.90
9913;DHT22;41380;52.548;13.344;2022-09-17T03:07:45;12.20;99.90
9913;DHT22;41380;52.548;13.344;2022-09-17T03:10:12;12.20;99.90
9913;DHT22;41380;52.548;13.344;2022-09-17T03:12:40;12.20;99.90
9913;DHT22;41380;52.548;13.344;2022-09-17T03:15:08;12.20;99.90
9913;DHT22;41380;52.548;13.344;2022-09-17T03:17:35;12.20;99.90
9913;DHT22;41380;52.548;13.344;2022-09-17T03:20:04;12.30;99.90
9913;DHT22;41380;52.548;13.344;2022-09-17T03:22:31;12.30;99.90
9913;DHT22;41380;52.548;13.344;2022-09-17T03:24:58;12.30;99.90
9913;DHT22;41380;52.548;13.344;2022-09-17T03:27:24;12.30;99.90
9913;DHT22;41380;52.548;13.344;2022-09-17T03:29:51;12.30;99.90
9913;DHT22;41380;52.548;13.344;2022-09-17T03:32:18;12.30;99.90
9913;DHT22;41380;52.548;13.344;2022-09-17T03:34:48;12.30;99.90
9913;DHT22;41380;52.548;13.344;2022-09-17T03:37:17;12.30;99.90
9913;DHT22;41380;52.548;13.344;2022-09-17T03:39:44;12.40;99.90
9913;DHT22;41380;52.548;13.344;2022-09-17T03:42:11;12.40;99.90
9913;DHT22;41380;52.548;13.344;2022-09-17T03:44:38;12.40;99.90
9913;DHT22;41380;52.548;13.344;2022-09-17T03:47:05;12.40;99.90
9913;DHT22;41380;52.548;13.344;2022-09-17T03:49:32;12.40;99.90
9913;DHT22;41380;52.548;13.344;2022-09-17T03:51:59;12.40;99.90
9913;DHT22;41380;52.548;13.344;2022-09-17T03:54:27;12.40;99.90
9913;DHT22;41380;52.548;13.344;2022-09-17T03:56:54;12.40;99.90
9913;DHT22;41380;52.548;13.344;2022-09-17T03:59:21;12.40;99.90
9913;DHT22;41380;52.548;13.344;2022-09-17T04:01:48;12.40;99.90
9913;DHT22;41380;52.548;13.344;2022-09-17T04:04:15;12.40;99.90
9913;DHT22;41380;52.548;13.344;2022-09-17T04:06:42;12.30;99.90
9913;DHT22;41380;52.548;13.344;2022-09-17T04:09:10;12.30;99.90
9913;DHT22;41380;52.548;13.344;2022-09-17T04:11:40;12.30;99.90
9913;DHT22;41380;52.548;13.344;2022-09-17T04:14:07;12.40;99.90
9913;DHT22;41380;52.548;13.344;2022-09-17T04:16:34;12.30;99.90
9913;DHT22;41380;52.548;13.344;2022-09-17T04:19:01;12.40;99.90
9913;DHT22;41380;52.548;13.344;2022-09-17T04:21:28;12.40;99.90
9913;DHT22;41380;52.548;13.344;2022-09-17T04:23:55;12.40;99.90
9913;DHT22;41380;52.548;13.344;2022-09-17T04:26:22;12.40;99.90
9913;DHT22;41380;52.548;13.344;2022-09-17T04:28:51;12.40;99.90
9913;DHT22;41380;52.548;13.344;2022-09-17T04:31:18;12.40;99.90
9913;DHT22;41380;52.548;13.344;2022-09-17T04:33:47;12.40;99.90
9913;DHT22;41380;52.548;13.344;2022-09-17T04:36:13;12.40;99.90
9913;DHT22;41380;52.548;13.344;2022-09-17T04:38:40;12.50;99.90
9913;DHT22;41380;52.548;13.344;2022-09-17T04:41:07;12.40;99.90
9913;DHT22;41380;52.548;13.344;2022-09-17T04:43:34;12.50;99.90
9913;DHT22;41380;52.548;13.344;2022-09-17T04:46:03;12.50;99.90
9913;DHT22;41380;52.548;13.344;2022-09-17T04:48:31;12.50;99.90
9913;DHT22;41380;52.548;13.344;2022-09-17T04:50:58;12.50;99.90
9913;DHT22;41380;52.548;13.344;2022-09-17T04:53:24;12.50;99.90
9913;DHT22;41380;52.548;13.344;2022-09-17T04:55:51;12.50;99.90
9913;DHT22;41380;52.548;13.344;2022-09-17T04:58:18;12.50;99.90
9913;DHT22;41380;52.548;13.344;2022-09-17T05:00:45;12.50;99.90
9913;DHT22;41380;52.548;13.344;2022-09-17T05:03:13;12.50;99.90
9913;DHT22;41380;52.548;13.344;2022-09-17T05:05:40;12.50;99.90
9913;DHT22;41380;52.548;13.344;2022-09-17T05:08:07;12.50;99.90
9913;DHT22;41380;52.548;13.344;2022-09-17T05:10:35;12.50;99.90
9913;DHT22;41380;52.548;13.344;2022-09-17T05:13:02;12.50;99.90
9913;DHT22;41380;52.548;13.344;2022-09-17T05:15:29;12.60;99.90
9913;DHT22;41380;52.548;13.344;2022-09-17T05:17:56;12.60;99.90
9913;DHT22;41380;52.548;13.344;2022-09-17T05:20:25;12.60;99.90
9913;DHT22;41380;52.548;13.344;2022-09-17T05:22:52;12.60;99.90
9913;DHT22;41380;52.548;13.344;2022-09-17T05:25:21;12.60;99.90
9913;DHT22;41380;52.548;13.344;2022-09-17T05:27:50;12.70;99.90
9913;DHT22;41380;52.548;13.344;2022-09-17T05:30:17;12.70;99.90
9913;DHT22;41380;52.548;13.344;2022-09-17T05:32:44;12.80;99.90
9913;DHT22;41380;52.548;13.344;2022-09-17T05:35:12;12.80;99.90
9913;DHT22;41380;52.548;13.344;2022-09-17T05:37:43;12.90;99.90
9913;DHT22;41380;52.548;13.344;2022-09-17T05:40:10;13.00;99.90
9913;DHT22;41380;52.548;13.344;2022-09-17T05:42:37;13.00;99.90
9913;DHT22;41380;52.548;13.344;2022-09-17T05:45:04;13.10;99.90
9913;DHT22;41380;52.548;13.344;2022-09-17T05:47:31;13.10;99.90
9913;DHT22;41380;52.548;13.344;2022-09-17T05:49:59;13.10;99.90
9913;DHT22;41380;52.548;13.344;2022-09-17T05:52:27;13.20;99.90
9913;DHT22;41380;52.548;13.344;2022-09-17T05:54:57;13.10;99.90
9913;DHT22;41380;52.548;13.344;2022-09-17T05:57:27;13.20;99.90
9913;DHT22;41380;52.548;13.344;2022-09-17T05:59:56;13.30;99.90
9913;DHT22;41380;52.548;13.344;2022-09-17T06:02:23;13.40;99.90
9913;DHT22;41380;52.548;13.344;2022-09-17T06:04:50;13.40;99.90
9913;DHT22;41380;52.548;13.344;2022-09-17T06:07:17;13.40;99.90
9913;DHT22;41380;52.548;13.344;2022-09-17T06:09:44;13.50;99.90
9913;DHT22;41380;52.548;13.344;2022-09-17T06:12:12;13.50;99.90
9913;DHT22;41380;52.548;13.344;2022-09-17T06:14:39;13.60;99.90
9913;DHT22;41380;52.548;13.344;2022-09-17T06:17:06;13.70;99.90
9913;DHT22;41380;52.548;13.344;2022-09-17T06:19:33;13.60;99.90
9913;DHT22;41380;52.548;13.344;2022-09-17T06:21:59;13.50;99.90
9913;DHT22;41380;52.548;13.344;2022-09-17T06:24:27;13.60;99.90
9913;DHT22;41380;52.548;13.344;2022-09-17T06:26:53;13.60;99.90
9913;DHT22;41380;52.548;13.344;2022-09-17T06:29:22;13.80;99.90
9913;DHT22;41380;52.548;13.344;2022-09-17T06:31:49;13.80;99.90
9913;DHT22;41380;52.548;13.344;2022-09-17T06:34:19;13.80;99.90
9913;DHT22;41380;52.548;13.344;2022-09-17T06:36:48;13.90;99.90
9913;DHT22;41380;52.548;13.344;2022-09-17T06:39:15;14.10;99.90
9913;DHT22;41380;52.548;13.344;2022-09-17T06:41:42;14.10;99.90
9913;DHT22;41380;52.548;13.344;2022-09-17T06:44:09;14.00;99.90
9913;DHT22;41380;52.548;13.344;2022-09-17T06:46:39;14.00;99.90
9913;DHT22;41380;52.548;13.344;2022-09-17T06:49:08;13.90;99.90
9913;DHT22;41380;52.548;13.344;2022-09-17T06:51:36;13.90;99.90
9913;DHT22;41380;52.548;13.344;2022-09-17T06:54:06;13.80;99.90
9913;DHT22;41380;52.548;13.344;2022-09-17T06:56:33;13.80;99.90
9913;DHT22;41380;52.548;13.344;2022-09-17T06:59:00;13.80;99.90
9913;DHT22;41380;52.548;13.344;2022-09-17T07:01:27;13.80;99.90
9913;DHT22;41380;52.548;13.344;2022-09-17T07:03:56;13.80;99.90
9913;DHT22;41380;52.548;13.344;2022-09-17T07:06:23;13.80;99.90
9913;DHT22;41380;52.548;13.344;2022-09-17T07:08:49;13.80;99.90
9913;DHT22;41380;52.548;13.344;2022-09-17T07:11:16;13.90;99.90
9913;DHT22;41380;52.548;13.344;2022-09-17T07:13:43;13.90;99.90
9913;DHT22;41380;52.548;13.344;2022-09-17T07:16:12;14.00;99.90
9913;DHT22;41380;52.548;13.344;2022-09-17T07:18:40;14.20;99.90
9913;DHT22;41380;52.548;13.344;2022-09-17T07:21:09;14.30;99.90
9913;DHT22;41380;52.548;13.344;2022-09-17T07:23:36;14.30;99.90
9913;DHT22;41380;52.548;13.344;2022-09-17T07:26:05;14.50;99.90
9913;DHT22;41380;52.548;13.344;2022-09-17T07:28:32;14.50;99.90
9913;DHT22;41380;52.548;13.344;2022-09-17T07:31:03;14.60;99.90
9913;DHT22;41380;52.548;13.344;2022-09-17T07:33:30;14.70;99.90
9913;DHT22;41380;52.548;13.344;2022-09-17T07:35:59;14.80;99.90
9913;DHT22;41380;52.548;13.344;2022-09-17T07:38:29;14.90;99.90
9913;DHT22;41380;52.548;13.344;2022-09-17T07:40:56;14.90;99.90
9913;DHT22;41380;52.548;13.344;2022-09-17T07:43:27;15.00;99.90
9913;DHT22;41380;52.548;13.344;2022-09-17T07:45:56;15.10;99.90
9913;DHT22;41380;52.548;13.344;2022-09-17T07:48:24;15.20;99.90
9913;DHT22;41380;52.548;13.344;2022-09-17T07:50:51;15.20;99.90
9913;DHT22;41380;52.548;13.344;2022-09-17T07:53:21;15.20;99.90
9913;DHT22;41380;52.548;13.344;2022-09-17T07:55:53;15.10;99.90
9913;DHT22;41380;52.548;13.344;2022-09-17T07:58:20;15.10;99.90
9913;DHT22;41380;52.548;13.344;2022-09-17T08:00:47;15.10;99.90
9913;DHT22;41380;52.548;13.344;2022-09-17T08:03:15;15.20;99.90
9913;DHT22;41380;52.548;13.344;2022-09-17T08:05:43;15.30;99.90
9913;DHT22;41380;52.548;13.344;2022-09-17T08:08:12;15.20;99.90
9913;DHT22;41380;52.548;13.344;2022-09-17T08:10:40;15.30;99.90
9913;DHT22;41380;52.548;13.344;2022-09-17T08:13:09;15.50;99.90
9913;DHT22;41380;52.548;13.344;2022-09-17T08:15:36;15.80;99.90
9913;DHT22;41380;52.548;13.344;2022-09-17T08:18:03;15.90;99.80
9913;DHT22;41380;52.548;13.344;2022-09-17T08:20:30;16.20;99.50
9913;DHT22;41380;52.548;13.344;2022-09-17T08:22:58;16.30;98.80
9913;DHT22;41380;52.548;13.344;2022-09-17T08:25:25;16.40;98.70
9913;DHT22;41380;52.548;13.344;2022-09-17T08:27:53;16.60;98.70
9913;DHT22;41380;52.548;13.344;2022-09-17T08:30:23;16.70;98.20
9913;DHT22;41380;52.548;13.344;2022-09-17T08:32:50;16.80;97.60
9913;DHT22;41380;52.548;13.344;2022-09-17T08:35:17;16.80;97.10
9913;DHT22;41380;52.548;13.344;2022-09-17T08:37:45;16.70;96.80
9913;DHT22;41380;52.548;13.344;2022-09-17T08:40:15;16.60;96.70
9913;DHT22;41380;52.548;13.344;2022-09-17T08:42:50;16.80;96.40
9913;DHT22;41380;52.548;13.344;2022-09-17T08:45:21;16.80;95.70
9913;DHT22;41380;52.548;13.344;2022-09-17T08:47:48;16.90;95.90
9913;DHT22;41380;52.548;13.344;2022-09-17T08:50:26;17.00;95.70
9913;DHT22;41380;52.548;13.344;2022-09-17T08:53:29;17.20;95.40
9913;DHT22;41380;52.548;13.344;2022-09-17T08:56:02;17.00;95.00
9913;DHT22;41380;52.548;13.344;2022-09-17T08:58:50;16.90;95.40
9913;DHT22;41380;52.548;13.344;2022-09-17T09:01:33;17.00;94.70
9913;DHT22;41380;52.548;13.344;2022-09-17T09:04:13;16.70;95.00
9913;DHT22;41380;52.548;13.344;2022-09-17T09:06:48;16.60;95.00
9913;DHT22;41380;52.548;13.344;2022-09-17T09:09:18;16.40;95.10
9913;DHT22;41380;52.548;13.344;2022-09-17T09:11:47;16.20;95.30
9913;DHT22;41380;52.548;13.344;2022-09-17T09:14:20;16.20;95.20
9913;DHT22;41380;52.548;13.344;2022-09-17T09:16:51;16.30;94.80
9913;DHT22;41380;52.548;13.344;2022-09-17T09:19:22;16.60;95.10
9913;DHT22;41380;52.548;13.344;2022-09-17T09:22:01;17.10;94.90
9913;DHT22;41380;52.548;13.344;2022-09-17T09:24:39;17.50;93.70
9913;DHT22;41380;52.548;13.344;2022-09-17T09:27:15;17.60;93.30
9913;DHT22;41380;52.548;13.344;2022-09-17T09:29:52;17.80;93.60
9913;DHT22;41380;52.548;13.344;2022-09-17T09:32:33;17.90;93.00
9913;DHT22;41380;52.548;13.344;2022-09-17T09:35:15;18.00;92.60
9913;DHT22;41380;52.548;13.344;2022-09-17T09:37:48;18.30;92.70
9913;DHT22;41380;52.548;13.344;2022-09-17T09:40:35;18.40;92.10
9913;DHT22;41380;52.548;13.344;2022-09-17T09:43:13;18.30;92.40
9913;DHT22;41380;52.548;13.344;2022-09-17T09:45:55;18.10;92.50
9913;DHT22;41380;52.548;13.344;2022-09-17T09:48:32;17.90;92.80
9913;DHT22;41380;52.548;13.344;2022-09-17T09:51:12;18.00;93.10
9913;DHT22;41380;52.548;13.344;2022-09-17T09:53:52;18.00;93.00
9913;DHT22;41380;52.548;13.344;2022-09-17T09:56:35;18.10;93.20
9913;DHT22;41380;52.548;13.344;2022-09-17T09:59:06;18.10;93.60
9913;DHT22;41380;52.548;13.344;2022-09-17T10:01:36;17.90;93.80
9913;DHT22;41380;52.548;13.344;2022-09-17T10:04:15;17.60;93.10
9913;DHT22;41380;52.548;13.344;2022-09-17T10:06:42;17.50;93.50
9913;DHT22;41380;52.548;13.344;2022-09-17T10:09:12;17.70;93.20
9913;DHT22;41380;52.548;13.344;2022-09-17T10:11:39;17.70;92.80
9913;DHT22;41380;52.548;13.344;2022-09-17T10:14:20;17.80;92.60
9913;DHT22;41380;52.548;13.344;2022-09-17T10:16:49;17.80;92.70
9913;DHT22;41380;52.548;13.344;2022-09-17T10:19:20;17.70;92.90
9913;DHT22;41380;52.548;13.344;2022-09-17T10:21:49;17.90;92.70
9913;DHT22;41380;52.548;13.344;2022-09-17T10:24:23;18.10;92.50
9913;DHT22;41380;52.548;13.344;2022-09-17T10:26:51;18.10;91.10
9913;DHT22;41380;52.548;13.344;2022-09-17T10:29:19;18.00;91.30
9913;DHT22;41380;52.548;13.344;2022-09-17T10:31:48;17.70;95.90
9913;DHT22;41380;52.548;13.344;2022-09-17T10:34:21;17.00;96.90
9913;DHT22;41380;52.548;13.344;2022-09-17T10:36:49;16.50;99.00
9913;DHT22;41380;52.548;13.344;2022-09-17T10:39:28;16.20;98.50
9913;DHT22;41380;52.548;13.344;2022-09-17T10:41:57;15.90;98.00
9913;DHT22;41380;52.548;13.344;2022-09-17T10:44:26;15.70;98.00
9913;DHT22;41380;52.548;13.344;2022-09-17T10:46:54;15.80;99.50
9913;DHT22;41380;52.548;13.344;2022-09-17T10:49:36;16.00;98.40
9913;DHT22;41380;52.548;13.344;2022-09-17T10:52:09;16.40;98.50
9913;DHT22;41380;52.548;13.344;2022-09-17T10:55:09;17.00;98.30
9913;DHT22;41380;52.548;13.344;2022-09-17T10:58:10;17.40;97.00
9913;DHT22;41380;52.548;13.344;2022-09-17T11:00:48;17.80;96.80
9913;DHT22;41380;52.548;13.344;2022-09-17T11:03:35;18.10;95.50
9913;DHT22;41380;52.548;13.344;2022-09-17T11:06:29;18.40;93.50
9913;DHT22;41380;52.548;13.344;2022-09-17T11:09:05;18.40;92.00
9913;DHT22;41380;52.548;13.344;2022-09-17T11:11:47;18.50;91.30
9913;DHT22;41380;52.548;13.344;2022-09-17T11:17:33;18.60;90.80
9913;DHT22;41380;52.548;13.344;2022-09-17T11:20:08;18.90;90.40
9913;DHT22;41380;52.548;13.344;2022-09-17T11:22:50;19.00;89.30
9913;DHT22;41380;52.548;13.344;2022-09-17T11:25:31;19.00;88.20
9913;DHT22;41380;52.548;13.344;2022-09-17T11:28:08;18.80;88.60
9913;DHT22;41380;52.548;13.344;2022-09-17T11:30:50;18.50;88.50
9913;DHT22;41380;52.548;13.344;2022-09-17T11:33:41;18.00;89.20
9913;DHT22;41380;52.548;13.344;2022-09-17T11:36:13;17.70;90.10
9913;DHT22;41380;52.548;13.344;2022-09-17T11:38:47;17.20;90.50
9913;DHT22;41380;52.548;13.344;2022-09-17T11:41:17;16.80;92.60
9913;DHT22;41380;52.548;13.344;2022-09-17T11:43:49;16.50;93.10
9913;DHT22;41380;52.548;13.344;2022-09-17T11:46:26;16.40;93.70
9913;DHT22;41380;52.548;13.344;2022-09-17T11:48:58;16.60;94.00
9913;DHT22;41380;52.548;13.344;2022-09-17T11:51:30;16.70;92.80
9913;DHT22;41380;52.548;13.344;2022-09-17T11:54:04;17.00;93.00
9913;DHT22;41380;52.548;13.344;2022-09-17T11:56:35;17.40;92.50
9913;DHT22;41380;52.548;13.344;2022-09-17T11:59:13;17.70;91.90
9913;DHT22;41380;52.548;13.344;2022-09-17T12:01:46;17.90;91.70
9913;DHT22;41380;52.548;13.344;2022-09-17T12:04:31;18.10;90.80
9913;DHT22;41380;52.548;13.344;2022-09-17T12:07:03;18.30;91.10
9913;DHT22;41380;52.548;13.344;2022-09-17T12:09:36;18.20;90.80
9913;DHT22;41380;52.548;13.344;2022-09-17T12:12:06;18.20;89.90
9913;DHT22;41380;52.548;13.344;2022-09-17T12:14:43;18.20;89.30
9913;DHT22;41380;52.548;13.344;2022-09-17T12:17:18;18.20;87.90
9913;DHT22;41380;52.548;13.344;2022-09-17T12:19:48;18.40;88.20
9913;DHT22;41380;52.548;13.344;2022-09-17T12:22:19;18.40;87.00
9913;DHT22;41380;52.548;13.344;2022-09-17T12:24:50;18.40;86.00
9913;DHT22;41380;52.548;13.344;2022-09-17T12:27:28;18.50;86.00
9913;DHT22;41380;52.548;13.344;2022-09-17T12:30:07;18.80;84.60
9913;DHT22;41380;52.548;13.344;2022-09-17T12:33:07;19.10;84.30
9913;DHT22;41380;52.548;13.344;2022-09-17T12:35:57;19.40;83.80
9913;DHT22;41380;52.548;13.344;2022-09-17T12:41:51;20.00;84.30
9913;DHT22;41380;52.548;13.344;2022-09-17T12:44:36;20.20;84.20
9913;DHT22;41380;52.548;13.344;2022-09-17T12:47:25;20.30;83.70
9913;DHT22;41380;52.548;13.344;2022-09-17T12:50:15;19.90;84.10
9913;DHT22;41380;52.548;13.344;2022-09-17T12:53:01;19.70;82.30
9913;DHT22;41380;52.548;13.344;2022-09-17T12:55:43;19.50;82.20
9913;DHT22;41380;52.548;13.344;2022-09-17T12:58:21;18.90;82.10
9913;DHT22;41380;52.548;13.344;2022-09-17T13:00:59;18.40;82.80
9913;DHT22;41380;52.548;13.344;2022-09-17T13:03:31;18.20;84.20
9913;DHT22;41380;52.548;13.344;2022-09-17T13:12:09;17.70;80.90
9913;DHT22;41380;52.548;13.344;2022-09-17T13:15:01;17.80;79.40
9913;DHT22;41380;52.548;13.344;2022-09-17T13:17:41;17.80;79.90
9913;DHT22;41380;52.548;13.344;2022-09-17T13:20:15;17.80;81.50
9913;DHT22;41380;52.548;13.344;2022-09-17T13:22:45;17.70;81.70
9913;DHT22;41380;52.548;13.344;2022-09-17T13:25:15;17.70;83.10
9913;DHT22;41380;52.548;13.344;2022-09-17T13:27:45;17.60;83.50
9913;DHT22;41380;52.548;13.344;2022-09-17T13:30:15;17.60;84.30
9913;DHT22;41380;52.548;13.344;2022-09-17T13:32:48;17.60;84.50
9913;DHT22;41380;52.548;13.344;2022-09-17T13:35:47;17.60;85.50
9913;DHT22;41380;52.548;13.344;2022-09-17T13:38:16;17.50;85.50
9913;DHT22;41380;52.548;13.344;2022-09-17T13:40:44;17.50;84.90
9913;DHT22;41380;52.548;13.344;2022-09-17T13:43:14;17.80;85.20
9913;DHT22;41380;52.548;13.344;2022-09-17T13:46:16;18.20;84.10
9913;DHT22;41380;52.548;13.344;2022-09-17T13:48:53;18.60;81.10
9913;DHT22;41380;52.548;13.344;2022-09-17T13:51:50;18.60;77.60
9913;DHT22;41380;52.548;13.344;2022-09-17T13:54:20;18.40;78.10
9913;DHT22;41380;52.548;13.344;2022-09-17T13:57:01;18.40;79.30
9913;DHT22;41380;52.548;13.344;2022-09-17T13:59:32;18.20;80.70
9913;DHT22;41380;52.548;13.344;2022-09-17T14:05:31;17.70;82.10
9913;DHT22;41380;52.548;13.344;2022-09-17T14:08:29;17.70;82.90
9913;DHT22;41380;52.548;13.344;2022-09-17T14:10:59;17.80;80.90
9913;DHT22;41380;52.548;13.344;2022-09-17T14:13:50;17.80;80.80
9913;DHT22;41380;52.548;13.344;2022-09-17T14:16:31;17.70;81.30
9913;DHT22;41380;52.548;13.344;2022-09-17T14:19:12;17.80;81.60
9913;DHT22;41380;52.548;13.344;2022-09-17T14:21:55;17.90;81.60
9913;DHT22;41380;52.548;13.344;2022-09-17T14:24:25;18.10;81.60
9913;DHT22;41380;52.548;13.344;2022-09-17T14:27:13;18.00;81.30
9913;DHT22;41380;52.548;13.344;2022-09-17T14:32:36;17.90;81.00
9913;DHT22;41380;52.548;13.344;2022-09-17T14:35:16;17.60;82.50
9913;DHT22;41380;52.548;13.344;2022-09-17T14:37:50;17.30;83.00
9913;DHT22;41380;52.548;13.344;2022-09-17T14:40:19;16.90;83.60
9913;DHT22;41380;52.548;13.344;2022-09-17T14:42:51;16.70;83.80
9913;DHT22;41380;52.548;13.344;2022-09-17T14:45:22;16.70;84.30
9913;DHT22;41380;52.548;13.344;2022-09-17T14:51:23;16.70;84.40
9913;DHT22;41380;52.548;13.344;2022-09-17T14:54:16;16.70;84.20
9913;DHT22;41380;52.548;13.344;2022-09-17T14:56:53;16.60;84.70
9913;DHT22;41380;52.548;13.344;2022-09-17T15:02:27;16.70;84.10
9913;DHT22;41380;52.548;13.344;2022-09-17T15:04:55;16.70;83.00
9913;DHT22;41380;52.548;13.344;2022-09-17T15:07:25;16.70;82.40
9913;DHT22;41380;52.548;13.344;2022-09-17T15:09:52;16.60;82.00
9913;DHT22;41380;52.548;13.344;2022-09-17T15:12:27;16.50;82.00
9913;DHT22;41380;52.548;13.344;2022-09-17T15:14:56;16.50;83.40
9913;DHT22;41380;52.548;13.344;2022-09-17T15:17:23;16.40;82.90
9913;DHT22;41380;52.548;13.344;2022-09-17T15:19:52;16.20;83.90
9913;DHT22;41380;52.548;13.344;2022-09-17T15:22:24;16.10;84.50
9913;DHT22;41380;52.548;13.344;2022-09-17T15:24:55;15.90;85.10
9913;DHT22;41380;52.548;13.344;2022-09-17T15:27:28;15.80;85.70
9913;DHT22;41380;52.548;13.344;2022-09-17T15:29:58;15.70;86.30
9913;DHT22;41380;52.548;13.344;2022-09-17T15:32:27;15.70;86.80
9913;DHT22;41380;52.548;13.344;2022-09-17T15:35:19;15.70;86.10
9913;DHT22;41380;52.548;13.344;2022-09-17T15:37:48;15.70;86.40
9913;DHT22;41380;52.548;13.344;2022-09-17T15:40:26;15.70;86.30
9913;DHT22;41380;52.548;13.344;2022-09-17T15:43:03;15.70;86.40
9913;DHT22;41380;52.548;13.344;2022-09-17T15:45:31;15.60;87.30
9913;DHT22;41380;52.548;13.344;2022-09-17T15:48:02;15.50;87.40
9913;DHT22;41380;52.548;13.344;2022-09-17T15:50:31;15.50;87.90
9913;DHT22;41380;52.548;13.344;2022-09-17T15:53:13;15.50;87.60
9913;DHT22;41380;52.548;13.344;2022-09-17T15:55:42;15.40;86.30
9913;DHT22;41380;52.548;13.344;2022-09-17T15:58:22;15.10;86.80
9913;DHT22;41380;52.548;13.344;2022-09-17T16:04:29;14.70;88.50
9913;DHT22;41380;52.548;13.344;2022-09-17T16:07:22;14.70;89.60
9913;DHT22;41380;52.548;13.344;2022-09-17T16:09:52;14.70;89.00
9913;DHT22;41380;52.548;13.344;2022-09-17T16:12:22;14.70;88.70
9913;DHT22;41380;52.548;13.344;2022-09-17T16:14:51;14.70;88.70
9913;DHT22;41380;52.548;13.344;2022-09-17T16:17:30;14.50;88.40
9913;DHT22;41380;52.548;13.344;2022-09-17T16:20:12;14.30;88.80
9913;DHT22;41380;52.548;13.344;2022-09-17T16:22:40;14.40;89.10
9913;DHT22;41380;52.548;13.344;2022-09-17T16:25:10;14.30;89.10
9913;DHT22;41380;52.548;13.344;2022-09-17T16:27:46;14.20;89.40
9913;DHT22;41380;52.548;13.344;2022-09-17T16:30:17;14.10;89.30
9913;DHT22;41380;52.548;13.344;2022-09-17T16:32:45;14.00;89.70
9913;DHT22;41380;52.548;13.344;2022-09-17T16:35:13;13.90;90.10
9913;DHT22;41380;52.548;13.344;2022-09-17T16:37:40;13.60;90.40
9913;DHT22;41380;52.548;13.344;2022-09-17T16:40:11;13.50;90.60
9913;DHT22;41380;52.548;13.344;2022-09-17T16:42:38;13.30;91.00
9913;DHT22;41380;52.548;13.344;2022-09-17T16:45:06;13.20;91.30